sensor_id;sensor_type;location;lat;lon;timestamp;temperature;humidity
18508;DHT22;9383;50.928;12.116;2022-07-29T00:02:05;18.20;58.30
18508;DHT22;9383;50.928;12.116;2022-07-29T00:04:34;18.20;58.50
18508;DHT22;9383;50.928;12.116;2022-07-29T00:07:01;18.20;59.10
18508;DHT22;9383;50.928;12.116;2022-07-29T00:09:28;18.20;58.10
18508;DHT22;9383;50.928;12.116;2022-07-29T00:11:55;18.10;58.10
18508;DHT22;9383;50.928;12.116;2022-07-29T00:14:24;18.10;58.60
18508;DHT22;9383;50.928;12.116;2022-07-29T00:16:50;18.20;58.70
18508;DHT22;9383;50.928;12.116;2022-07-29T00:19:16;18.20;58.70
18508;DHT22;9383;50.928;12.116;2022-07-29T00:21:42;18.10;58.80
18508;DHT22;9383;50.928;12.116;2022-07-29T00:24:08;18.10;58.50
18508;DHT22;9383;50.928;12.116;2022-07-29T00:26:34;18.10;59.00
18508;DHT22;9383;50.928;12.116;2022-07-29T00:29:02;18.90;59.40
18508;DHT22;9383;50.928;12.116;2022-07-29T00:31:29;18.90;59.50
18508;DHT22;9383;50.928;12.116;2022-07-29T00:33:55;18.10;59.00
18508;DHT22;9383;50.928;12.116;2022-07-29T00:36:22;18.10;58.80
18508;DHT22;9383;50.928;12.116;2022-07-29T00:38:49;18.10;59.20
18508;DHT22;9383;50.928;12.116;2022-07-29T00:41:17;18.10;59.30
18508;DHT22;9383;50.928;12.116;2022-07-29T00:43:44;18.10;59.40
18508;DHT22;9383;50.928;12.116;2022-07-29T00:46:11;18.00;59.10
18508;DHT22;9383;50.928;12.116;2022-07-29T00:48:37;18.00;59.50
18508;DHT22;9383;50.928;12.116;2022-07-29T00:51:05;17.90;59.50
18508;DHT22;9383;50.928;12.116;2022-07-29T00:53:34;16.60;59.00
18508;DHT22;9383;50.928;12.116;2022-07-29T00:56:01;17.90;59.70
18508;DHT22;9383;50.928;12.116;2022-07-29T00:58:27;17.90;59.60
18508;DHT22;9383;50.928;12.116;2022-07-29T01:00:53;17.80;60.00
18508;DHT22;9383;50.928;12.116;2022-07-29T01:03:19;17.80;60.20
18508;DHT22;9383;50.928;12.116;2022-07-29T01:05:46;17.70;59.70
18508;DHT22;9383;50.928;12.116;2022-07-29T01:08:15;17.80;60.20
18508;DHT22;9383;50.928;12.116;2022-07-29T01:10:43;18.50;60.60
18508;DHT22;9383;50.928;12.116;2022-07-29T01:13:10;18.40;60.50
18508;DHT22;9383;50.928;12.116;2022-07-29T01:15:46;17.70;60.10
18508;DHT22;9383;50.928;12.116;2022-07-29T01:18:24;17.70;60.60
18508;DHT22;9383;50.928;12.116;2022-07-29T01:24:19;17.60;60.60
18508;DHT22;9383;50.928;12.116;2022-07-29T01:29:43;17.60;60.70
18508;DHT22;9383;50.928;12.116;2022-07-29T01:32:28;18.30;61.70
18508;DHT22;9383;50.928;12.116;2022-07-29T01:35:06;17.60;61.80
18508;DHT22;9383;50.928;12.116;2022-07-29T01:37:50;17.50;61.20
18508;DHT22;9383;50.928;12.116;2022-07-29T01:43:36;17.50;61.90
18508;DHT22;9383;50.928;12.116;2022-07-29T01:46:35;17.40;61.60
18508;DHT22;9383;50.928;12.116;2022-07-29T01:49:13;17.40;62.00
18508;DHT22;9383;50.928;12.116;2022-07-29T01:51:46;17.30;62.30
18508;DHT22;9383;50.928;12.116;2022-07-29T01:54:38;17.30;63.60
18508;DHT22;9383;50.928;12.116;2022-07-29T01:57:11;17.20;63.60
18508;DHT22;9383;50.928;12.116;2022-07-29T01:59:40;17.20;64.00
18508;DHT22;9383;50.928;12.116;2022-07-29T02:02:12;17.30;64.20
18508;DHT22;9383;50.928;12.116;2022-07-29T02:04:41;18.00;64.50
18508;DHT22;9383;50.928;12.116;2022-07-29T02:07:13;17.00;63.80
18508;DHT22;9383;50.928;12.116;2022-07-29T02:09:44;17.00;63.40
18508;DHT22;9383;50.928;12.116;2022-07-29T02:12:14;17.00;63.90
18508;DHT22;9383;50.928;12.116;2022-07-29T02:14:53;17.00;64.00
18508;DHT22;9383;50.928;12.116;2022-07-29T02:17:35;16.90;63.50
18508;DHT22;9383;50.928;12.116;2022-07-29T02:20:08;16.90;64.20
18508;DHT22;9383;50.928;12.116;2022-07-29T02:22:37;16.90;64.90
18508;DHT22;9383;50.928;12.116;2022-07-29T02:25:06;17.20;65.00
18508;DHT22;9383;50.928;12.116;2022-07-29T02:27:35;16.80;64.90
18508;DHT22;9383;50.928;12.116;2022-07-29T02:30:05;16.70;64.90
18508;DHT22;9383;50.928;12.116;2022-07-29T02:32:35;16.70;65.20
18508;DHT22;9383;50.928;12.116;2022-07-29T02:35:05;16.70;65.50
18508;DHT22;9383;50.928;12.116;2022-07-29T02:37:32;16.70;65.50
18508;DHT22;9383;50.928;12.116;2022-07-29T02:40:01;16.60;65.40
18508;DHT22;9383;50.928;12.116;2022-07-29T02:44:56;16.50;65.50
18508;DHT22;9383;50.928;12.116;2022-07-29T02:47:31;16.50;65.90
18508;DHT22;9383;50.928;12.116;2022-07-29T02:50:04;16.50;66.30
18508;DHT22;9383;50.928;12.116;2022-07-29T02:52:52;16.40;66.90
18508;DHT22;9383;50.928;12.116;2022-07-29T02:55:26;16.40;66.80
18508;DHT22;9383;50.928;12.116;2022-07-29T03:00:46;16.40;66.40
18508;DHT22;9383;50.928;12.116;2022-07-29T03:03:16;16.30;66.90
18508;DHT22;9383;50.928;12.116;2022-07-29T03:05:47;18.20;68.00
18508;DHT22;9383;50.928;12.116;2022-07-29T03:08:14;16.30;66.90
18508;DHT22;9383;50.928;12.116;2022-07-29T03:10:44;16.30;67.50
18508;DHT22;9383;50.928;12.116;2022-07-29T03:13:12;16.20;67.10
18508;DHT22;9383;50.928;12.116;2022-07-29T03:15:43;17.20;68.40
18508;DHT22;9383;50.928;12.116;2022-07-29T03:18:10;16.20;67.50
18508;DHT22;9383;50.928;12.116;2022-07-29T03:20:38;16.20;67.30
18508;DHT22;9383;50.928;12.116;2022-07-29T03:23:04;16.20;67.80
18508;DHT22;9383;50.928;12.116;2022-07-29T03:25:30;16.20;68.10
18508;DHT22;9383;50.928;12.116;2022-07-29T03:27:56;17.10;69.20
18508;DHT22;9383;50.928;12.116;2022-07-29T03:30:23;16.00;68.10
18508;DHT22;9383;50.928;12.116;2022-07-29T03:32:51;16.70;69.00
18508;DHT22;9383;50.928;12.116;2022-07-29T03:35:19;16.10;68.60
18508;DHT22;9383;50.928;12.116;2022-07-29T03:37:45;16.10;68.20
18508;DHT22;9383;50.928;12.116;2022-07-29T03:40:19;16.10;68.60
18508;DHT22;9383;50.928;12.116;2022-07-29T03:42:53;16.00;68.80
18508;DHT22;9383;50.928;12.116;2022-07-29T03:45:21;16.00;68.70
18508;DHT22;9383;50.928;12.116;2022-07-29T03:47:53;16.00;68.80
18508;DHT22;9383;50.928;12.116;2022-07-29T03:50:22;16.50;69.20
18508;DHT22;9383;50.928;12.116;2022-07-29T03:52:49;16.00;69.10
18508;DHT22;9383;50.928;12.116;2022-07-29T03:55:16;15.90;69.10
18508;DHT22;9383;50.928;12.116;2022-07-29T03:57:42;15.90;68.60
18508;DHT22;9383;50.928;12.116;2022-07-29T04:00:11;16.90;69.70
18508;DHT22;9383;50.928;12.116;2022-07-29T04:02:38;15.90;69.70
18508;DHT22;9383;50.928;12.116;2022-07-29T04:05:11;16.50;70.70
18508;DHT22;9383;50.928;12.116;2022-07-29T04:07:39;15.80;70.90
18508;DHT22;9383;50.928;12.116;2022-07-29T04:10:06;15.80;70.40
18508;DHT22;9383;50.928;12.116;2022-07-29T04:12:33;15.70;70.30
18508;DHT22;9383;50.928;12.116;2022-07-29T04:14:59;15.70;70.30
18508;DHT22;9383;50.928;12.116;2022-07-29T04:17:25;15.70;70.30
18508;DHT22;9383;50.928;12.116;2022-07-29T04:19:51;15.70;70.40
18508;DHT22;9383;50.928;12.116;2022-07-29T04:22:37;15.70;70.70
18508;DHT22;9383;50.928;12.116;2022-07-29T04:25:23;15.70;70.70
18508;DHT22;9383;50.928;12.116;2022-07-29T04:27:49;15.80;71.20
18508;DHT22;9383;50.928;12.116;2022-07-29T04:30:31;15.80;71.30
18508;DHT22;9383;50.928;12.116;2022-07-29T04:32:59;15.70;71.60
18508;DHT22;9383;50.928;12.116;2022-07-29T04:37:54;15.80;71.70
18508;DHT22;9383;50.928;12.116;2022-07-29T04:40:20;15.70;71.80
18508;DHT22;9383;50.928;12.116;2022-07-29T04:47:40;15.80;71.90
18508;DHT22;9383;50.928;12.116;2022-07-29T04:57:29;15.90;73.50
18508;DHT22;9383;50.928;12.116;2022-07-29T05:02:22;16.00;74.30
18508;DHT22;9383;50.928;12.116;2022-07-29T05:12:08;16.20;74.30
18508;DHT22;9383;50.928;12.116;2022-07-29T05:14:35;16.10;74.20
18508;DHT22;9383;50.928;12.116;2022-07-29T05:17:01;16.20;73.90
18508;DHT22;9383;50.928;12.116;2022-07-29T05:19:28;16.30;74.20
18508;DHT22;9383;50.928;12.116;2022-07-29T05:29:15;16.50;76.40
18508;DHT22;9383;50.928;12.116;2022-07-29T05:34:08;16.50;76.60
18508;DHT22;9383;50.928;12.116;2022-07-29T05:36:34;16.50;76.80
18508;DHT22;9383;50.928;12.116;2022-07-29T05:39:00;16.40;76.60
18508;DHT22;9383;50.928;12.116;2022-07-29T05:41:26;16.60;76.60
18508;DHT22;9383;50.928;12.116;2022-07-29T05:43:52;16.70;76.40
18508;DHT22;9383;50.928;12.116;2022-07-29T05:51:12;16.90;74.00
18508;DHT22;9383;50.928;12.116;2022-07-29T05:53:40;17.00;72.90
18508;DHT22;9383;50.928;12.116;2022-07-29T05:58:33;17.10;72.30
18508;DHT22;9383;50.928;12.116;2022-07-29T06:00:59;17.00;72.30
18508;DHT22;9383;50.928;12.116;2022-07-29T06:03:26;17.10;72.10
18508;DHT22;9383;50.928;12.116;2022-07-29T06:05:52;17.20;72.00
18508;DHT22;9383;50.928;12.116;2022-07-29T06:08:18;17.20;72.10
18508;DHT22;9383;50.928;12.116;2022-07-29T06:13:11;17.30;72.80
18508;DHT22;9383;50.928;12.116;2022-07-29T06:15:38;17.30;72.90
18508;DHT22;9383;50.928;12.116;2022-07-29T06:18:04;17.40;72.90
18508;DHT22;9383;50.928;12.116;2022-07-29T06:20:34;17.50;73.10
18508;DHT22;9383;50.928;12.116;2022-07-29T06:25:30;17.60;72.80
18508;DHT22;9383;50.928;12.116;2022-07-29T06:27:57;17.70;72.50
18508;DHT22;9383;50.928;12.116;2022-07-29T06:37:43;18.00;72.30
18508;DHT22;9383;50.928;12.116;2022-07-29T06:40:09;18.00;72.20
18508;DHT22;9383;50.928;12.116;2022-07-29T06:42:54;18.10;72.70
18508;DHT22;9383;50.928;12.116;2022-07-29T06:52:42;18.40;73.50
18508;DHT22;9383;50.928;12.116;2022-07-29T07:14:44;19.00;69.90
18508;DHT22;9383;50.928;12.116;2022-07-29T07:17:10;19.00;69.90
18508;DHT22;9383;50.928;12.116;2022-07-29T07:39:10;20.00;67.40
18508;DHT22;9383;50.928;12.116;2022-07-29T07:41:37;19.90;67.80
18508;DHT22;9383;50.928;12.116;2022-07-29T07:51:23;20.40;67.10
18508;DHT22;9383;50.928;12.116;2022-07-29T08:08:30;21.20;65.00
18508;DHT22;9383;50.928;12.116;2022-07-29T08:13:26;21.60;63.40
18508;DHT22;9383;50.928;12.116;2022-07-29T08:15:56;21.60;63.40
18508;DHT22;9383;50.928;12.116;2022-07-29T08:26:11;22.00;61.20
18508;DHT22;9383;50.928;12.116;2022-07-29T08:28:38;22.20;60.30
18508;DHT22;9383;50.928;12.116;2022-07-29T08:31:06;22.40;60.00
18508;DHT22;9383;50.928;12.116;2022-07-29T08:33:32;22.30;59.90
18508;DHT22;9383;50.928;12.116;2022-07-29T08:35:59;22.40;59.80
18508;DHT22;9383;50.928;12.116;2022-07-29T08:40:53;22.60;59.60
18508;DHT22;9383;50.928;12.116;2022-07-29T08:43:19;22.80;59.20
18508;DHT22;9383;50.928;12.116;2022-07-29T08:45:50;22.70;57.00
18508;DHT22;9383;50.928;12.116;2022-07-29T08:48:18;23.00;58.90
18508;DHT22;9383;50.928;12.116;2022-07-29T08:50:48;23.00;57.60
18508;DHT22;9383;50.928;12.116;2022-07-29T08:53:18;22.90;58.10
18508;DHT22;9383;50.928;12.116;2022-07-29T08:55:49;23.20;58.40
18508;DHT22;9383;50.928;12.116;2022-07-29T08:58:16;23.10;58.70
18508;DHT22;9383;50.928;12.116;2022-07-29T09:00:51;24.00;60.90
18508;DHT22;9383;50.928;12.116;2022-07-29T09:03:20;23.90;59.70
18508;DHT22;9383;50.928;12.116;2022-07-29T09:05:50;23.70;56.30
18508;DHT22;9383;50.928;12.116;2022-07-29T09:08:17;23.80;57.40
18508;DHT22;9383;50.928;12.116;2022-07-29T09:10:44;23.80;56.90
18508;DHT22;9383;50.928;12.116;2022-07-29T09:13:11;24.00;56.70
18508;DHT22;9383;50.928;12.116;2022-07-29T09:15:37;24.00;56.40
18508;DHT22;9383;50.928;12.116;2022-07-29T09:18:03;24.10;56.50
18508;DHT22;9383;50.928;12.116;2022-07-29T09:20:30;24.20;56.20
18508;DHT22;9383;50.928;12.116;2022-07-29T09:23:16;24.30;55.00
18508;DHT22;9383;50.928;12.116;2022-07-29T09:25:42;24.30;54.90
18508;DHT22;9383;50.928;12.116;2022-07-29T09:28:18;24.30;54.90
18508;DHT22;9383;50.928;12.116;2022-07-29T09:30:52;24.40;54.90
18508;DHT22;9383;50.928;12.116;2022-07-29T09:33:21;24.40;55.90
18508;DHT22;9383;50.928;12.116;2022-07-29T09:36:07;24.40;55.60
18508;DHT22;9383;50.928;12.116;2022-07-29T09:38:35;24.40;55.00
18508;DHT22;9383;50.928;12.116;2022-07-29T09:41:04;24.50;55.20
18508;DHT22;9383;50.928;12.116;2022-07-29T09:43:30;24.50;55.10
18508;DHT22;9383;50.928;12.116;2022-07-29T09:46:10;24.50;55.00
18508;DHT22;9383;50.928;12.116;2022-07-29T09:48:38;24.50;54.30
18508;DHT22;9383;50.928;12.116;2022-07-29T09:51:04;24.50;55.10
18508;DHT22;9383;50.928;12.116;2022-07-29T09:53:33;24.50;55.00
18508;DHT22;9383;50.928;12.116;2022-07-29T09:56:03;24.40;53.70
18508;DHT22;9383;50.928;12.116;2022-07-29T09:58:30;24.40;54.20
18508;DHT22;9383;50.928;12.116;2022-07-29T10:00:59;24.30;54.60
18508;DHT22;9383;50.928;12.116;2022-07-29T10:03:25;24.30;54.90
18508;DHT22;9383;50.928;12.116;2022-07-29T10:06:11;24.30;55.20
18508;DHT22;9383;50.928;12.116;2022-07-29T10:08:39;24.30;55.60
18508;DHT22;9383;50.928;12.116;2022-07-29T10:11:13;24.40;55.10
18508;DHT22;9383;50.928;12.116;2022-07-29T10:13:43;24.40;55.10
18508;DHT22;9383;50.928;12.116;2022-07-29T10:16:11;24.50;54.10
18508;DHT22;9383;50.928;12.116;2022-07-29T10:18:39;24.60;54.10
18508;DHT22;9383;50.928;12.116;2022-07-29T10:21:06;24.70;53.80
18508;DHT22;9383;50.928;12.116;2022-07-29T10:23:33;24.80;54.00
18508;DHT22;9383;50.928;12.116;2022-07-29T10:26:00;24.90;53.60
18508;DHT22;9383;50.928;12.116;2022-07-29T10:28:30;25.00;53.20
18508;DHT22;9383;50.928;12.116;2022-07-29T10:31:02;25.10;53.20
18508;DHT22;9383;50.928;12.116;2022-07-29T10:36:44;25.30;53.80
18508;DHT22;9383;50.928;12.116;2022-07-29T10:42:24;25.60;53.10
18508;DHT22;9383;50.928;12.116;2022-07-29T10:44:54;25.70;53.40
18508;DHT22;9383;50.928;12.116;2022-07-29T10:47:24;25.80;52.90
18508;DHT22;9383;50.928;12.116;2022-07-29T10:50:04;25.90;52.40
18508;DHT22;9383;50.928;12.116;2022-07-29T10:55:38;26.20;53.50
18508;DHT22;9383;50.928;12.116;2022-07-29T10:58:21;26.20;51.40
18508;DHT22;9383;50.928;12.116;2022-07-29T11:00:51;26.30;51.90
18508;DHT22;9383;50.928;12.116;2022-07-29T11:06:07;26.40;51.70
18508;DHT22;9383;50.928;12.116;2022-07-29T11:08:33;26.50;51.90
18508;DHT22;9383;50.928;12.116;2022-07-29T11:11:30;26.50;51.90
18508;DHT22;9383;50.928;12.116;2022-07-29T11:13:57;26.60;52.00
18508;DHT22;9383;50.928;12.116;2022-07-29T11:16:23;26.70;52.40
18508;DHT22;9383;50.928;12.116;2022-07-29T11:21:42;26.90;51.40
18508;DHT22;9383;50.928;12.116;2022-07-29T11:24:17;26.40;51.00
18508;DHT22;9383;50.928;12.116;2022-07-29T11:27:15;27.20;50.00
18508;DHT22;9383;50.928;12.116;2022-07-29T11:29:54;27.20;50.20
18508;DHT22;9383;50.928;12.116;2022-07-29T11:32:24;27.30;50.80
18508;DHT22;9383;50.928;12.116;2022-07-29T11:37:40;27.30;49.70
18508;DHT22;9383;50.928;12.116;2022-07-29T11:45:10;27.30;49.80
18508;DHT22;9383;50.928;12.116;2022-07-29T11:47:48;27.40;50.80
18508;DHT22;9383;50.928;12.116;2022-07-29T11:52:56;27.60;49.80
18508;DHT22;9383;50.928;12.116;2022-07-29T11:55:23;27.60;49.80
18508;DHT22;9383;50.928;12.116;2022-07-29T11:57:54;27.60;49.60
18508;DHT22;9383;50.928;12.116;2022-07-29T12:00:32;27.70;49.30
18508;DHT22;9383;50.928;12.116;2022-07-29T12:03:04;27.70;49.10
18508;DHT22;9383;50.928;12.116;2022-07-29T12:05:39;27.80;49.40
18508;DHT22;9383;50.928;12.116;2022-07-29T12:10:40;28.00;48.80
18508;DHT22;9383;50.928;12.116;2022-07-29T12:13:08;27.90;48.80
18508;DHT22;9383;50.928;12.116;2022-07-29T12:15:35;28.00;49.50
18508;DHT22;9383;50.928;12.116;2022-07-29T12:18:17;28.00;49.50
18508;DHT22;9383;50.928;12.116;2022-07-29T12:20:46;28.00;48.70
18508;DHT22;9383;50.928;12.116;2022-07-29T12:23:14;28.10;48.90
18508;DHT22;9383;50.928;12.116;2022-07-29T12:25:43;28.10;49.50
18508;DHT22;9383;50.928;12.116;2022-07-29T12:28:12;28.10;48.90
18508;DHT22;9383;50.928;12.116;2022-07-29T12:30:46;28.10;49.60
18508;DHT22;9383;50.928;12.116;2022-07-29T12:33:23;28.20;48.50
18508;DHT22;9383;50.928;12.116;2022-07-29T12:35:54;28.20;48.40
18508;DHT22;9383;50.928;12.116;2022-07-29T12:38:29;28.20;48.90
18508;DHT22;9383;50.928;12.116;2022-07-29T12:40:56;28.10;47.60
18508;DHT22;9383;50.928;12.116;2022-07-29T12:43:24;28.10;48.40
18508;DHT22;9383;50.928;12.116;2022-07-29T12:45:53;28.10;48.50
18508;DHT22;9383;50.928;12.116;2022-07-29T12:48:37;28.10;49.30
18508;DHT22;9383;50.928;12.116;2022-07-29T12:51:06;28.20;48.80
18508;DHT22;9383;50.928;12.116;2022-07-29T12:53:34;28.10;49.20
18508;DHT22;9383;50.928;12.116;2022-07-29T12:56:03;28.30;49.30
18508;DHT22;9383;50.928;12.116;2022-07-29T12:58:36;28.30;48.30
18508;DHT22;9383;50.928;12.116;2022-07-29T13:03:55;28.40;48.80
18508;DHT22;9383;50.928;12.116;2022-07-29T13:06:34;28.50;49.10
18508;DHT22;9383;50.928;12.116;2022-07-29T13:11:48;28.50;47.10
18508;DHT22;9383;50.928;12.116;2022-07-29T13:14:32;28.40;47.60
18508;DHT22;9383;50.928;12.116;2022-07-29T13:22:12;28.50;48.10
18508;DHT22;9383;50.928;12.116;2022-07-29T13:24:47;28.40;47.50
18508;DHT22;9383;50.928;12.116;2022-07-29T13:27:16;28.50;47.70
18508;DHT22;9383;50.928;12.116;2022-07-29T13:29:43;28.40;48.00
18508;DHT22;9383;50.928;12.116;2022-07-29T13:32:10;28.40;48.00
18508;DHT22;9383;50.928;12.116;2022-07-29T13:34:37;28.30;48.20
18508;DHT22;9383;50.928;12.116;2022-07-29T13:37:06;28.40;48.00
18508;DHT22;9383;50.928;12.116;2022-07-29T13:39:33;28.30;47.80
18508;DHT22;9383;50.928;12.116;2022-07-29T13:41:59;28.30;48.00
18508;DHT22;9383;50.928;12.116;2022-07-29T13:44:25;28.30;48.70
18508;DHT22;9383;50.928;12.116;2022-07-29T13:46:51;28.20;47.50
18508;DHT22;9383;50.928;12.116;2022-07-29T13:49:17;28.10;47.40
18508;DHT22;9383;50.928;12.116;2022-07-29T13:51:56;28.00;47.70
18508;DHT22;9383;50.928;12.116;2022-07-29T13:54:22;28.00;48.00
18508;DHT22;9383;50.928;12.116;2022-07-29T13:56:50;27.90;47.60
18508;DHT22;9383;50.928;12.116;2022-07-29T13:59:17;27.90;48.40
18508;DHT22;9383;50.928;12.116;2022-07-29T14:01:44;27.90;48.60
18508;DHT22;9383;50.928;12.116;2022-07-29T14:04:10;27.90;48.40
18508;DHT22;9383;50.928;12.116;2022-07-29T14:06:37;27.90;50.70
18508;DHT22;9383;50.928;12.116;2022-07-29T14:09:04;27.80;52.10
18508;DHT22;9383;50.928;12.116;2022-07-29T14:11:37;27.70;52.90
18508;DHT22;9383;50.928;12.116;2022-07-29T14:14:04;27.50;53.20
18508;DHT22;9383;50.928;12.116;2022-07-29T14:16:31;27.40;53.90
18508;DHT22;9383;50.928;12.116;2022-07-29T14:19:00;27.30;54.30
18508;DHT22;9383;50.928;12.116;2022-07-29T14:21:26;27.10;54.90
18508;DHT22;9383;50.928;12.116;2022-07-29T14:23:53;26.90;55.80
18508;DHT22;9383;50.928;12.116;2022-07-29T14:26:21;26.80;56.90
18508;DHT22;9383;50.928;12.116;2022-07-29T14:28:48;26.60;57.50
18508;DHT22;9383;50.928;12.116;2022-07-29T14:31:15;26.50;57.50
18508;DHT22;9383;50.928;12.116;2022-07-29T14:33:41;26.30;58.40
18508;DHT22;9383;50.928;12.116;2022-07-29T14:36:08;26.20;58.90
18508;DHT22;9383;50.928;12.116;2022-07-29T14:38:35;26.20;59.10
18508;DHT22;9383;50.928;12.116;2022-07-29T14:41:03;26.00;59.70
18508;DHT22;9383;50.928;12.116;2022-07-29T14:43:29;26.00;59.70
18508;DHT22;9383;50.928;12.116;2022-07-29T14:45:56;25.80;59.60
18508;DHT22;9383;50.928;12.116;2022-07-29T14:48:22;25.70;59.60
18508;DHT22;9383;50.928;12.116;2022-07-29T14:50:48;25.70;59.90
18508;DHT22;9383;50.928;12.116;2022-07-29T14:53:14;25.60;60.20
18508;DHT22;9383;50.928;12.116;2022-07-29T14:55:40;25.50;60.10
18508;DHT22;9383;50.928;12.116;2022-07-29T14:58:07;25.40;61.00
18508;DHT22;9383;50.928;12.116;2022-07-29T15:00:36;25.30;61.00
18508;DHT22;9383;50.928;12.116;2022-07-29T15:03:03;25.30;61.30
18508;DHT22;9383;50.928;12.116;2022-07-29T15:05:30;25.20;61.20
18508;DHT22;9383;50.928;12.116;2022-07-29T15:07:59;25.10;61.20
18508;DHT22;9383;50.928;12.116;2022-07-29T15:12:54;24.90;62.70
18508;DHT22;9383;50.928;12.116;2022-07-29T15:15:20;24.90;63.00
18508;DHT22;9383;50.928;12.116;2022-07-29T15:17:47;24.80;63.50
18508;DHT22;9383;50.928;12.116;2022-07-29T15:20:13;24.80;63.80
18508;DHT22;9383;50.928;12.116;2022-07-29T15:22:39;24.80;63.70
18508;DHT22;9383;50.928;12.116;2022-07-29T15:25:10;24.60;64.70
18508;DHT22;9383;50.928;12.116;2022-07-29T15:27:36;24.70;64.90
18508;DHT22;9383;50.928;12.116;2022-07-29T15:30:03;24.70;65.30
18508;DHT22;9383;50.928;12.116;2022-07-29T15:32:29;24.60;66.20
18508;DHT22;9383;50.928;12.116;2022-07-29T15:34:55;24.60;67.90
18508;DHT22;9383;50.928;12.116;2022-07-29T15:37:22;24.60;67.10
18508;DHT22;9383;50.928;12.116;2022-07-29T15:39:48;24.40;67.30
18508;DHT22;9383;50.928;12.116;2022-07-29T15:42:14;24.40;67.20
18508;DHT22;9383;50.928;12.116;2022-07-29T15:44:41;24.30;67.40
18508;DHT22;9383;50.928;12.116;2022-07-29T15:47:07;24.30;67.60
18508;DHT22;9383;50.928;12.116;2022-07-29T15:49:37;24.30;67.20
18508;DHT22;9383;50.928;12.116;2022-07-29T15:52:07;24.30;68.00
18508;DHT22;9383;50.928;12.116;2022-07-29T15:54:37;24.20;68.00
18508;DHT22;9383;50.928;12.116;2022-07-29T15:57:06;24.30;68.50
18508;DHT22;9383;50.928;12.116;2022-07-29T15:59:33;24.20;67.80
18508;DHT22;9383;50.928;12.116;2022-07-29T16:02:00;24.20;66.20
18508;DHT22;9383;50.928;12.116;2022-07-29T16:04:27;24.20;66.10
18508;DHT22;9383;50.928;12.116;2022-07-29T16:06:56;24.20;65.70
18508;DHT22;9383;50.928;12.116;2022-07-29T16:09:22;24.10;66.10
18508;DHT22;9383;50.928;12.116;2022-07-29T16:11:49;24.10;65.70
18508;DHT22;9383;50.928;12.116;2022-07-29T16:14:19;24.10;66.70
18508;DHT22;9383;50.928;12.116;2022-07-29T16:19:13;24.10;66.30
18508;DHT22;9383;50.928;12.116;2022-07-29T16:21:39;24.10;66.20
18508;DHT22;9383;50.928;12.116;2022-07-29T16:24:06;24.10;66.80
18508;DHT22;9383;50.928;12.116;2022-07-29T16:29:00;24.10;65.60
18508;DHT22;9383;50.928;12.116;2022-07-29T16:31:27;24.10;64.80
18508;DHT22;9383;50.928;12.116;2022-07-29T16:33:53;24.20;65.20
18508;DHT22;9383;50.928;12.116;2022-07-29T16:36:20;24.10;64.60
18508;DHT22;9383;50.928;12.116;2022-07-29T16:38:47;24.30;64.50
18508;DHT22;9383;50.928;12.116;2022-07-29T16:41:14;24.20;64.70
18508;DHT22;9383;50.928;12.116;2022-07-29T16:43:40;24.20;64.70
18508;DHT22;9383;50.928;12.116;2022-07-29T16:46:07;24.20;64.30
18508;DHT22;9383;50.928;12.116;2022-07-29T16:48:34;24.30;64.20
18508;DHT22;9383;50.928;12.116;2022-07-29T16:51:06;24.30;64.30
18508;DHT22;9383;50.928;12.116;2022-07-29T16:53:33;24.30;64.50
18508;DHT22;9383;50.928;12.116;2022-07-29T16:55:59;24.40;64.10
18508;DHT22;9383;50.928;12.116;2022-07-29T16:58:25;24.40;64.30
18508;DHT22;9383;50.928;12.116;2022-07-29T17:00:52;24.40;63.80
18508;DHT22;9383;50.928;12.116;2022-07-29T17:03:18;24.40;63.50
18508;DHT22;9383;50.928;12.116;2022-07-29T17:05:44;24.40;63.50
18508;DHT22;9383;50.928;12.116;2022-07-29T17:08:10;24.40;63.40
18508;DHT22;9383;50.928;12.116;2022-07-29T17:10:37;24.10;63.10
18508;DHT22;9383;50.928;12.116;2022-07-29T17:13:03;24.50;63.10
18508;DHT22;9383;50.928;12.116;2022-07-29T17:15:29;24.50;63.10
18508;DHT22;9383;50.928;12.116;2022-07-29T17:17:56;24.50;63.40
18508;DHT22;9383;50.928;12.116;2022-07-29T17:20:23;24.50;63.80
18508;DHT22;9383;50.928;12.116;2022-07-29T17:22:51;24.50;64.90
18508;DHT22;9383;50.928;12.116;2022-07-29T17:25:18;24.60;65.30
18508;DHT22;9383;50.928;12.116;2022-07-29T17:27:44;24.60;65.20
18508;DHT22;9383;50.928;12.116;2022-07-29T17:30:11;24.60;63.70
18508;DHT22;9383;50.928;12.116;2022-07-29T17:32:38;24.60;63.90
18508;DHT22;9383;50.928;12.116;2022-07-29T17:35:06;24.60;63.20
18508;DHT22;9383;50.928;12.116;2022-07-29T17:37:55;24.60;64.50
18508;DHT22;9383;50.928;12.116;2022-07-29T17:40:22;24.50;65.90
18508;DHT22;9383;50.928;12.116;2022-07-29T17:42:49;24.50;66.50
18508;DHT22;9383;50.928;12.116;2022-07-29T17:45:15;24.60;66.60
18508;DHT22;9383;50.928;12.116;2022-07-29T17:47:42;24.50;66.40
18508;DHT22;9383;50.928;12.116;2022-07-29T17:50:22;24.40;65.60
18508;DHT22;9383;50.928;12.116;2022-07-29T17:52:56;24.40;65.50
18508;DHT22;9383;50.928;12.116;2022-07-29T17:55:22;24.40;66.20
18508;DHT22;9383;50.928;12.116;2022-07-29T17:57:48;24.30;66.10
18508;DHT22;9383;50.928;12.116;2022-07-29T18:00:14;24.40;66.60
18508;DHT22;9383;50.928;12.116;2022-07-29T18:07:33;24.30;66.10
18508;DHT22;9383;50.928;12.116;2022-07-29T18:10:00;24.30;66.60
18508;DHT22;9383;50.928;12.116;2022-07-29T18:12:26;24.20;66.60
18508;DHT22;9383;50.928;12.116;2022-07-29T18:14:53;24.10;66.80
18508;DHT22;9383;50.928;12.116;2022-07-29T18:17:19;24.10;67.30
18508;DHT22;9383;50.928;12.116;2022-07-29T18:19:45;24.10;68.90
18508;DHT22;9383;50.928;12.116;2022-07-29T18:22:11;24.00;70.30
18508;DHT22;9383;50.928;12.116;2022-07-29T18:24:38;24.00;71.30
18508;DHT22;9383;50.928;12.116;2022-07-29T18:27:04;24.00;72.00
18508;DHT22;9383;50.928;12.116;2022-07-29T18:29:33;23.90;71.90
18508;DHT22;9383;50.928;12.116;2022-07-29T18:31:59;23.80;71.80
18508;DHT22;9383;50.928;12.116;2022-07-29T18:34:27;23.80;71.60
18508;DHT22;9383;50.928;12.116;2022-07-29T18:36:54;23.70;71.40
18508;DHT22;9383;50.928;12.116;2022-07-29T18:39:20;23.70;71.50
18508;DHT22;9383;50.928;12.116;2022-07-29T18:41:48;23.70;71.50
18508;DHT22;9383;50.928;12.116;2022-07-29T18:44:15;23.60;72.30
18508;DHT22;9383;50.928;12.116;2022-07-29T18:46:42;23.60;73.60
18508;DHT22;9383;50.928;12.116;2022-07-29T18:49:08;23.60;73.80
18508;DHT22;9383;50.928;12.116;2022-07-29T18:51:34;23.50;73.10
18508;DHT22;9383;50.928;12.116;2022-07-29T18:54:00;23.50;72.90
18508;DHT22;9383;50.928;12.116;2022-07-29T18:56:27;23.30;72.90
18508;DHT22;9383;50.928;12.116;2022-07-29T18:58:54;23.30;73.00
18508;DHT22;9383;50.928;12.116;2022-07-29T19:01:20;23.20;72.90
18508;DHT22;9383;50.928;12.116;2022-07-29T19:03:46;23.10;72.80